Tuesday, January 15, 2019, 5:30 PM CST
Back to Local

KVPZ, Valparaiso Porter Co Muni

Location: Valparaiso, IN, United States Lat: 41.45
Local Time: 5:30 PM CST (23:30 GMT) Lon: -87
Time Zone: US/Central Elev: 770 ft

Show me the last for .
Show Decoded

2019-01-15 16:56 METAR KVPZ 152256Z AUTO 23018G29KT 9SM OVC005 M02/M05 A3010 RMK AO2 PK WND
                 23029/2256 SLP201 T10171050 TSNO =
2019-01-15 15:56 METAR KVPZ 152156Z AUTO 22014G23KT 10SM OVC008 M02/M06 A3010 RMK AO2 SLP203
                 T10171056 TSNO =
2019-01-15 15:09 METAR KVPZ 152109Z AUTO 22015KT 10SM OVC009 M02/M06 A3012 RMK AO2 T10171056 TSNO
                 =
2019-01-15 14:56 METAR KVPZ 152056Z AUTO 22015KT 10SM OVC010 M02/M06 A3012 RMK AO2 CIG 008V012
                 SLP209 T10171056 56018 TSNO =
2019-01-15 14:22 METAR KVPZ 152022Z AUTO 23016G25KT 10SM OVC012 M01/M06 A3013 RMK AO2 T10111061
                 TSNO =
2019-01-15 14:14 METAR KVPZ 152014Z AUTO 24013G22KT 10SM BKN009 OVC014 M01/M06 A3013 RMK AO2 CIG
                 009V013 T10111061 TSNO =
2019-01-15 13:56 METAR KVPZ 151956Z AUTO 23015KT 10SM OVC010 M02/M06 A3014 RMK AO2 SLP214
                 T10171056 TSNO =
2019-01-15 12:56 METAR KVPZ 151856Z AUTO 23011G22KT 10SM OVC011 M02/M06 A3014 RMK AO2 SLP216
                 T10171061 TSNO =
2019-01-15 11:56 METAR KVPZ 151756Z AUTO 22012KT 10SM OVC012 M02/M06 A3017 RMK AO2 SLP228
                 T10171061 11017 21033 58017 TSNO =
2019-01-15 11:46 METAR KVPZ 151746Z AUTO 23013KT 10SM BKN011 OVC018 M02/M06 A3018 RMK AO2
                 T10171061 TSNO =
2019-01-15 11:26 METAR KVPZ 151726Z AUTO 22010KT 10SM SCT009 OVC019 M02/M06 A3020 RMK AO2
                 T10171061 TSNO =
2019-01-15 10:56 METAR KVPZ 151656Z AUTO 22011KT 9SM OVC007 M02/M06 A3022 RMK AO2 CIG 006V011
                 SLP244 T10221056 TSNO =
2019-01-15 09:56 METAR KVPZ 151556Z AUTO 23011KT 7SM BKN006 OVC012 M02/M06 A3023 RMK AO2 SLP249
                 T10221056 TSNO =
2019-01-15 08:56 METAR KVPZ 151456Z AUTO 23010KT 9SM OVC007 M03/M06 A3022 RMK AO2 SLP246
                 T10281061 53001 TSNO =
2019-01-15 07:56 METAR KVPZ 151356Z AUTO 24006KT 8SM OVC007 M03/M06 A3021 RMK AO2 SLP241
                 T10281061 TSNO =
2019-01-15 06:56 METAR KVPZ 151256Z AUTO 23010KT 8SM OVC007 M03/M06 A3022 RMK AO2 SLP242
                 T10281061 TSNO =
2019-01-15 06:21 METAR KVPZ 151221Z AUTO 24007KT 6SM HZ BKN008 OVC015 M03/M06 A3022 RMK AO2
                 T10281061 TSNO =
2019-01-15 05:56 METAR KVPZ 151156Z AUTO 24007KT 7SM SCT008 OVC016 M03/M06 A3022 RMK AO2 SLP243
                 I6000 T10281061 11028 21039 55006 TSNO =
2019-01-15 05:48 METAR KVPZ 151148Z AUTO 23009KT 7SM BKN009 OVC014 M03/M06 A3022 RMK AO2 CIG
                 007V014 T10331061 TSNO =
2019-01-15 05:25 METAR KVPZ 151125Z AUTO 24007KT 7SM BKN011 OVC016 M03/M06 A3022 RMK AO2
                 T10331061 TSNO =
2019-01-15 04:56 METAR KVPZ 151056Z AUTO 24008KT 7SM OVC016 M03/M06 A3022 RMK AO2 SLP244
                 T10331061 TSNO =
2019-01-15 04:27 METAR KVPZ 151027Z AUTO 24007KT 7SM SCT007 OVC015 M03/M06 A3022 RMK AO2
                 T10331061 TSNO =
2019-01-15 03:56 METAR KVPZ 150956Z AUTO 25009G17KT 6SM HZ OVC007 M03/M06 A3023 RMK AO2 SLP247
                 T10331061 TSNO =
2019-01-15 02:56 METAR KVPZ 150856Z AUTO 25010KT 5SM HZ OVC005 M03/M06 A3024 RMK AO2 SLP250 I3000
                 T10331061 56004 TSNO =
2019-01-15 02:14 METAR KVPZ 150814Z AUTO 25007KT 3SM HZ OVC004 M03/M06 A3024 RMK AO2 T10331061
                 TSNO =
2019-01-15 01:56 METAR KVPZ 150756Z AUTO 24006KT 3SM HZ OVC005 M03/M06 A3024 RMK AO2 SLP250 I1000
                 T10331061 TSNO =
2019-01-15 00:56 METAR KVPZ 150656Z AUTO 26005KT 5SM HZ OVC006 M04/M07 A3024 RMK AO2 SLP250
                 T10391067 TSNO =
2019-01-14 23:56 METAR KVPZ 150556Z AUTO 25010KT 6SM HZ OVC006 M04/M07 A3025 RMK AO2 SLP254
                 T10391072 11033 21044 410061111 58009 TSNO =
2019-01-14 22:56 METAR KVPZ 150456Z AUTO 24010KT 6SM HZ OVC008 M04/M08 A3027 RMK AO2 SLP260
                 T10441078 TSNO =
2019-01-14 21:56 METAR KVPZ 150356Z AUTO 24009KT 7SM OVC007 M04/M08 A3027 RMK AO2 SLP262
                 T10441078 TSNO =
2019-01-14 20:56 METAR KVPZ 150256Z AUTO 24008KT 6SM HZ OVC006 M04/M08 A3028 RMK AO2 SLP264
                 T10441078 58004 TSNO =
2019-01-14 19:56 METAR KVPZ 150156Z AUTO 24011KT 8SM OVC006 M04/M08 A3029 RMK AO2 SLP268
                 T10441078 TSNO =
2019-01-14 19:21 METAR KVPZ 150121Z AUTO 26011KT 9SM OVC008 M04/M08 A3029 RMK AO2 CIG 007V010
                 T10441078 TSNO =
2019-01-14 18:56 METAR KVPZ 150056Z AUTO 23010KT 10SM OVC011 M03/M07 A3029 RMK AO2 SLP270
                 T10331072 TSNO =
2019-01-14 18:22 METAR KVPZ 150022Z AUTO 25010KT 9SM OVC010 M03/M07 A3029 RMK AO2 T10331072 TSNO
                 =
2019-01-14 17:56 METAR KVPZ 142356Z AUTO 24008KT 8SM OVC009 M03/M07 A3029 RMK AO2 SLP269
                 T10331072 11017 21033 53000 TSNO =

Support USWX by starting your Amazon purchase here.